createdAt,value
2017-07-17T00:00:03.297Z,11.70
2017-07-17T00:05:05.097Z,12.50
2017-07-17T00:10:06.861Z,12.77
2017-07-17T00:15:08.606Z,13.27
2017-07-17T00:20:10.363Z,12.07
2017-07-17T00:25:12.132Z,11.40
2017-07-17T00:30:13.879Z,12.10
2017-07-17T00:35:16.420Z,10.93
2017-07-17T00:40:18.148Z,11.17
2017-07-17T00:45:19.890Z,11.80
2017-07-17T00:50:21.656Z,11.70
2017-07-17T00:55:24.150Z,11.40
2017-07-17T01:00:25.859Z,12.13
2017-07-17T01:05:27.605Z,11.60
2017-07-17T01:10:29.341Z,11.73
2017-07-17T01:15:31.075Z,10.50
2017-07-17T01:20:35.315Z,10.50
2017-07-17T01:25:37.100Z,12.87
2017-07-17T01:30:39.377Z,12.03
2017-07-17T01:35:41.785Z,11.83
2017-07-17T01:40:44.078Z,11.10
2017-07-17T01:45:46.165Z,11.77
2017-07-17T01:50:48.704Z,12.70
2017-07-17T01:55:50.967Z,11.70
2017-07-17T02:00:53.945Z,10.80
2017-07-17T02:05:56.448Z,11.10
2017-07-17T02:10:58.192Z,11.43
2017-07-17T02:15:59.933Z,10.20
2017-07-17T02:21:02.001Z,12.17
2017-07-17T02:26:03.746Z,11.43
2017-07-17T02:31:05.520Z,13.20
2017-07-17T02:36:08.100Z,12.63
2017-07-17T02:41:09.866Z,13.80
2017-07-17T02:46:11.621Z,17.43
2017-07-17T02:51:13.395Z,16.20
2017-07-17T02:56:15.140Z,12.23
2017-07-17T03:01:16.859Z,12.47
2017-07-17T03:06:19.191Z,11.50
2017-07-17T03:11:20.946Z,12.33
2017-07-17T03:16:22.818Z,15.70
2017-07-17T03:21:24.569Z,12.00
2017-07-17T03:26:27.048Z,13.77
2017-07-17T03:31:28.801Z,12.03
2017-07-17T03:36:30.604Z,12.73
2017-07-17T03:41:32.362Z,11.97
2017-07-17T03:46:34.126Z,11.43
2017-07-17T03:51:36.640Z,12.80
2017-07-17T03:56:38.378Z,12.57
2017-07-17T04:01:40.152Z,9.60
2017-07-17T04:06:41.899Z,9.30
2017-07-17T04:11:43.622Z,10.37
2017-07-17T04:16:46.107Z,9.77
2017-07-17T04:21:47.850Z,12.13
2017-07-17T04:26:49.589Z,9.40
2017-07-17T04:31:52.077Z,9.33
2017-07-17T04:36:53.807Z,8.40
2017-07-17T04:41:55.540Z,7.20
2017-07-17T04:46:57.279Z,7.57
2017-07-17T04:51:59.767Z,8.70
2017-07-17T04:57:01.880Z,7.30
2017-07-17T05:02:03.638Z,6.27
2017-07-17T05:07:06.117Z,7.00
2017-07-17T05:12:07.856Z,6.60
2017-07-17T05:17:09.570Z,6.70
2017-07-17T05:22:11.288Z,5.97
2017-07-17T05:27:13.053Z,7.13
2017-07-17T05:32:14.881Z,7.27
2017-07-17T05:37:16.708Z,6.30
2017-07-17T05:42:18.470Z,6.67
2017-07-17T05:47:20.201Z,6.50
2017-07-17T05:52:22.023Z,6.70
2017-07-17T05:57:23.762Z,6.20
2017-07-17T06:02:25.490Z,6.90
2017-07-17T06:07:27.275Z,6.30
2017-07-17T06:12:29.008Z,6.00
2017-07-17T06:17:30.708Z,6.10
2017-07-17T06:22:32.440Z,6.07
2017-07-17T06:27:34.198Z,6.80
2017-07-17T06:32:35.963Z,5.53
2017-07-17T06:37:37.679Z,6.10
2017-07-17T06:42:40.801Z,5.93
2017-07-17T06:47:42.933Z,4.43
2017-07-17T06:52:47.622Z,3.37
2017-07-17T06:57:51.723Z,3.97
2017-07-17T07:02:53.458Z,3.90
2017-07-17T07:07:57.348Z,2.93
2017-07-17T07:12:59.824Z,3.70
2017-07-17T07:18:01.691Z,3.57
2017-07-17T07:23:03.483Z,3.43
2017-07-17T07:28:05.298Z,3.13
2017-07-17T07:33:07.079Z,3.43
2017-07-17T07:38:08.814Z,2.93
2017-07-17T07:43:10.592Z,3.10
2017-07-17T07:48:12.334Z,2.33
2017-07-17T07:53:14.147Z,1.93
2017-07-17T07:58:15.915Z,2.23
2017-07-17T08:03:17.681Z,1.80
2017-07-17T08:08:19.685Z,2.30
2017-07-17T08:13:21.554Z,2.30
2017-07-17T08:18:23.377Z,2.23
2017-07-17T08:23:25.874Z,1.67
2017-07-17T08:28:27.668Z,3.07
2017-07-17T08:33:29.496Z,2.00
2017-07-17T08:38:31.287Z,2.50
2017-07-17T08:43:33.086Z,1.90
2017-07-17T08:48:34.828Z,2.03
2017-07-17T08:53:36.590Z,1.77
2017-07-17T08:58:38.328Z,1.50
2017-07-17T09:03:40.072Z,1.90
2017-07-17T09:08:41.842Z,1.70
2017-07-17T09:13:43.672Z,1.47
2017-07-17T09:18:45.529Z,1.37
2017-07-17T09:23:48.070Z,1.70
2017-07-17T09:28:49.871Z,1.50
2017-07-17T09:33:51.735Z,1.50
2017-07-17T09:38:53.569Z,1.63
2017-07-17T09:43:55.366Z,1.60
2017-07-17T09:48:57.881Z,1.57
2017-07-17T09:53:59.649Z,1.63
2017-07-17T09:59:01.531Z,1.40
2017-07-17T10:04:03.350Z,1.60
2017-07-17T10:09:11.291Z,1.47
2017-07-17T10:14:13.015Z,1.43
2017-07-17T10:19:14.782Z,1.20
2017-07-17T10:24:18.304Z,1.43
2017-07-17T10:29:20.047Z,1.10
2017-07-17T10:34:21.873Z,1.30
2017-07-17T10:39:23.958Z,1.60
2017-07-17T10:44:26.280Z,1.60
2017-07-17T10:49:28.060Z,1.50
2017-07-17T10:54:29.795Z,1.23
2017-07-17T10:59:31.557Z,1.30
2017-07-17T11:04:33.327Z,1.30
2017-07-17T11:09:35.832Z,1.70
2017-07-17T11:14:37.679Z,1.60
2017-07-17T11:19:40.232Z,1.80
2017-07-17T11:24:42.009Z,1.63
2017-07-17T11:29:43.811Z,1.50
2017-07-17T11:34:46.183Z,1.50
2017-07-17T11:39:48.025Z,1.60
2017-07-17T11:44:49.750Z,1.83
2017-07-17T12:00:05.948Z,1.73
2017-07-17T12:10:08.746Z,1.33
2017-07-17T12:15:11.227Z,2.60
2017-07-17T12:20:12.985Z,1.50
2017-07-17T12:25:14.728Z,1.20
2017-07-17T12:30:16.488Z,1.40
2017-07-17T12:35:18.292Z,1.50
2017-07-17T12:40:20.052Z,1.10
2017-07-17T12:45:21.889Z,0.90
2017-07-17T12:50:23.749Z,1.20
2017-07-17T12:55:25.473Z,1.10
2017-07-17T13:00:27.262Z,1.03
2017-07-17T13:05:28.998Z,1.20
2017-07-17T13:10:30.775Z,1.07
2017-07-17T13:15:33.283Z,1.33
2017-07-17T13:20:35.079Z,0.90
2017-07-17T13:25:36.855Z,1.43
2017-07-17T13:30:38.632Z,1.20
2017-07-17T13:35:40.437Z,1.00
2017-07-17T13:40:42.234Z,1.00
2017-07-17T13:45:43.974Z,2.37
2017-07-17T13:50:46.687Z,1.90
2017-07-17T13:55:48.494Z,1.30
2017-07-17T14:00:50.255Z,1.57
2017-07-17T14:05:51.987Z,3.87
2017-07-17T14:10:53.733Z,3.70
2017-07-17T14:15:55.483Z,2.10
2017-07-17T14:20:57.982Z,1.70
2017-07-17T14:25:59.759Z,1.63
2017-07-17T14:31:01.493Z,1.57
2017-07-17T14:36:03.304Z,1.53
2017-07-17T14:41:05.041Z,1.70
2017-07-17T14:46:06.808Z,1.73
2017-07-17T14:51:09.243Z,1.50
2017-07-17T14:56:11.032Z,1.43
2017-07-17T15:01:12.796Z,1.47
2017-07-17T15:06:14.533Z,1.60
2017-07-17T15:11:16.255Z,1.50
2017-07-17T15:16:18.011Z,1.70
2017-07-17T15:21:19.756Z,1.53
2017-07-17T15:26:21.492Z,1.70
2017-07-17T15:31:23.253Z,1.27
2017-07-17T15:36:24.982Z,1.20
2017-07-17T15:41:26.723Z,1.40
2017-07-17T15:46:28.495Z,1.20
2017-07-17T15:51:30.239Z,1.30
2017-07-17T15:56:31.962Z,1.60
2017-07-17T16:01:33.670Z,1.50
2017-07-17T16:06:36.123Z,1.67
2017-07-17T16:11:38.622Z,1.10
2017-07-17T16:16:40.408Z,1.20
2017-07-17T16:21:42.138Z,1.37
2017-07-17T16:26:44.003Z,1.20
2017-07-17T16:31:46.510Z,3.03
2017-07-17T16:36:48.249Z,1.40
2017-07-17T16:41:49.989Z,1.33
2017-07-17T16:46:51.927Z,1.30
2017-07-17T16:51:53.682Z,1.03
2017-07-17T16:56:55.414Z,1.20
2017-07-17T17:01:57.181Z,1.40
2017-07-17T17:06:58.901Z,1.17
2017-07-17T17:12:00.661Z,1.17
2017-07-17T17:17:04.121Z,1.40
2017-07-17T17:22:05.915Z,1.83
2017-07-17T17:27:07.714Z,1.73
2017-07-17T17:32:09.512Z,1.30
2017-07-17T17:37:12.406Z,1.27
2017-07-17T17:42:14.253Z,1.23
2017-07-17T17:47:16.068Z,1.40
2017-07-17T17:52:17.840Z,1.40
2017-07-17T17:57:19.605Z,1.60
2017-07-17T18:02:21.448Z,1.10
2017-07-17T18:07:23.399Z,1.10
2017-07-17T18:12:25.312Z,1.47
2017-07-17T18:17:27.897Z,1.60
2017-07-17T18:22:33.015Z,1.60
2017-07-17T18:27:34.926Z,1.70
2017-07-17T18:32:37.721Z,1.50
2017-07-17T18:37:40.635Z,1.60
2017-07-17T18:42:42.415Z,1.53
2017-07-17T18:47:44.211Z,1.80
2017-07-17T18:52:46.067Z,1.60
2017-07-17T18:57:47.922Z,2.00
2017-07-17T19:02:49.771Z,1.70
2017-07-17T19:07:52.791Z,1.73
2017-07-17T19:12:54.826Z,1.60
2017-07-17T19:17:57.731Z,1.83
2017-07-17T19:23:00.064Z,1.73
2017-07-17T19:28:01.891Z,2.13
2017-07-17T19:33:04.485Z,2.20
2017-07-17T19:38:06.249Z,2.20
2017-07-17T19:43:08.603Z,1.90
2017-07-17T19:48:10.739Z,3.00
2017-07-17T19:53:12.466Z,1.90
2017-07-17T19:58:14.280Z,2.13
2017-07-17T20:03:19.210Z,1.90
2017-07-17T20:08:24.432Z,2.10
2017-07-17T20:13:26.275Z,2.10
2017-07-17T20:18:28.830Z,2.67
2017-07-17T20:23:31.387Z,2.03
2017-07-17T20:28:33.231Z,2.63
2017-07-17T20:33:37.067Z,2.03
2017-07-17T20:38:38.811Z,2.33
2017-07-17T20:43:40.619Z,2.27
2017-07-17T20:48:43.127Z,2.60
2017-07-17T20:53:44.895Z,3.10
2017-07-17T20:58:46.663Z,2.73
2017-07-17T21:03:48.407Z,2.23
2017-07-17T21:08:50.927Z,2.23
2017-07-17T21:13:52.694Z,3.03
2017-07-17T21:18:55.315Z,3.57
2017-07-17T21:23:57.042Z,2.30
2017-07-17T21:28:58.825Z,2.50
2017-07-17T21:34:00.640Z,2.20
2017-07-17T21:39:02.429Z,2.67
2017-07-17T21:44:04.196Z,2.27
2017-07-17T21:49:06.013Z,2.63
2017-07-17T21:54:07.810Z,2.70
2017-07-17T21:59:09.551Z,2.63
2017-07-17T22:04:11.293Z,2.80
2017-07-17T22:09:13.059Z,2.63
2017-07-17T22:14:14.784Z,3.30
2017-07-17T22:19:16.543Z,2.97
2017-07-17T22:24:18.302Z,2.97
2017-07-17T22:29:20.030Z,3.43
2017-07-17T22:34:21.839Z,3.00
2017-07-17T22:39:23.634Z,2.07
2017-07-17T22:44:25.374Z,2.30
2017-07-17T22:49:27.130Z,2.60
2017-07-17T22:54:28.866Z,2.97
2017-07-17T22:59:30.606Z,2.80
2017-07-17T23:04:32.383Z,2.77
2017-07-17T23:09:35.143Z,3.00
2017-07-17T23:14:37.883Z,2.37
2017-07-17T23:19:39.607Z,2.60
2017-07-17T23:24:41.356Z,2.80
2017-07-17T23:29:43.120Z,2.63
2017-07-17T23:34:44.883Z,2.13
2017-07-17T23:39:47.372Z,2.87
2017-07-17T23:44:49.111Z,3.03
2017-07-17T23:49:50.875Z,2.50
2017-07-17T23:54:52.591Z,2.40
2017-07-17T23:59:54.298Z,3.07
